sensor_id;sensor_type;location;lat;lon;timestamp;P1;durP1;ratioP1;P2;durP2;ratioP2
69953;SDS011;57276;51.364;12.376;2023-05-07T00:05:58;10.07;;;5.50;;
69953;SDS011;57276;51.364;12.376;2023-05-07T00:12:00;11.70;;;6.25;;
69953;SDS011;57276;51.364;12.376;2023-05-07T00:18:02;9.27;;;5.23;;
69953;SDS011;57276;51.364;12.376;2023-05-07T00:24:03;10.65;;;5.35;;
69953;SDS011;57276;51.364;12.376;2023-05-07T00:30:05;9.95;;;5.47;;
69953;SDS011;57276;51.364;12.376;2023-05-07T00:36:08;10.77;;;5.73;;
69953;SDS011;57276;51.364;12.376;2023-05-07T00:42:10;11.70;;;5.82;;
69953;SDS011;57276;51.364;12.376;2023-05-07T00:48:11;12.27;;;6.10;;
69953;SDS011;57276;51.364;12.376;2023-05-07T00:54:15;10.63;;;5.90;;
69953;SDS011;57276;51.364;12.376;2023-05-07T01:00:17;11.77;;;6.45;;
69953;SDS011;57276;51.364;12.376;2023-05-07T01:06:19;12.93;;;6.70;;
69953;SDS011;57276;51.364;12.376;2023-05-07T01:12:23;12.38;;;6.85;;
69953;SDS011;57276;51.364;12.376;2023-05-07T01:18:26;11.93;;;6.63;;
69953;SDS011;57276;51.364;12.376;2023-05-07T01:24:28;13.30;;;6.72;;
69953;SDS011;57276;51.364;12.376;2023-05-07T01:30:30;13.73;;;7.43;;
69953;SDS011;57276;51.364;12.376;2023-05-07T01:36:35;14.03;;;7.47;;
69953;SDS011;57276;51.364;12.376;2023-05-07T01:42:38;13.98;;;7.30;;
69953;SDS011;57276;51.364;12.376;2023-05-07T01:48:40;14.37;;;7.80;;
69953;SDS011;57276;51.364;12.376;2023-05-07T01:54:41;14.35;;;8.40;;
69953;SDS011;57276;51.364;12.376;2023-05-07T02:00:44;15.35;;;8.35;;
69953;SDS011;57276;51.364;12.376;2023-05-07T02:06:46;16.57;;;8.73;;
69953;SDS011;57276;51.364;12.376;2023-05-07T02:12:48;16.83;;;9.00;;
69953;SDS011;57276;51.364;12.376;2023-05-07T02:18:52;16.90;;;8.73;;
69953;SDS011;57276;51.364;12.376;2023-05-07T02:24:53;16.17;;;8.63;;
69953;SDS011;57276;51.364;12.376;2023-05-07T02:30:55;16.77;;;9.43;;
69953;SDS011;57276;51.364;12.376;2023-05-07T02:36:57;15.83;;;8.80;;
69953;SDS011;57276;51.364;12.376;2023-05-07T02:43:01;15.90;;;8.88;;
69953;SDS011;57276;51.364;12.376;2023-05-07T02:49:03;14.83;;;9.00;;
69953;SDS011;57276;51.364;12.376;2023-05-07T02:55:05;15.70;;;8.82;;
69953;SDS011;57276;51.364;12.376;2023-05-07T03:01:06;17.48;;;9.52;;
69953;SDS011;57276;51.364;12.376;2023-05-07T03:07:21;15.57;;;8.27;;
69953;SDS011;57276;51.364;12.376;2023-05-07T03:13:23;15.43;;;8.77;;
69953;SDS011;57276;51.364;12.376;2023-05-07T03:19:26;15.73;;;8.93;;
69953;SDS011;57276;51.364;12.376;2023-05-07T03:25:28;14.73;;;8.38;;
69953;SDS011;57276;51.364;12.376;2023-05-07T03:31:31;16.13;;;8.40;;
69953;SDS011;57276;51.364;12.376;2023-05-07T03:37:35;16.00;;;8.87;;
69953;SDS011;57276;51.364;12.376;2023-05-07T03:43:37;16.98;;;8.70;;
69953;SDS011;57276;51.364;12.376;2023-05-07T03:49:43;16.07;;;9.07;;
69953;SDS011;57276;51.364;12.376;2023-05-07T03:55:44;14.77;;;8.93;;
69953;SDS011;57276;51.364;12.376;2023-05-07T04:01:46;16.50;;;8.82;;
69953;SDS011;57276;51.364;12.376;2023-05-07T04:07:51;16.07;;;9.33;;
69953;SDS011;57276;51.364;12.376;2023-05-07T04:13:58;17.38;;;9.43;;
69953;SDS011;57276;51.364;12.376;2023-05-07T04:19:59;16.57;;;9.03;;
69953;SDS011;57276;51.364;12.376;2023-05-07T04:26:03;19.60;;;9.82;;
69953;SDS011;57276;51.364;12.376;2023-05-07T04:32:13;16.13;;;8.45;;
69953;SDS011;57276;51.364;12.376;2023-05-07T04:38:15;16.13;;;9.23;;
69953;SDS011;57276;51.364;12.376;2023-05-07T04:44:18;18.83;;;10.02;;
69953;SDS011;57276;51.364;12.376;2023-05-07T04:50:21;17.67;;;9.27;;
69953;SDS011;57276;51.364;12.376;2023-05-07T04:56:29;19.17;;;9.10;;
69953;SDS011;57276;51.364;12.376;2023-05-07T05:02:32;15.45;;;8.30;;
69953;SDS011;57276;51.364;12.376;2023-05-07T05:08:34;15.37;;;8.63;;
69953;SDS011;57276;51.364;12.376;2023-05-07T05:14:37;14.52;;;8.45;;
69953;SDS011;57276;51.364;12.376;2023-05-07T05:20:41;13.83;;;7.93;;
69953;SDS011;57276;51.364;12.376;2023-05-07T05:26:43;13.38;;;7.93;;
69953;SDS011;57276;51.364;12.376;2023-05-07T05:32:44;14.73;;;7.65;;
69953;SDS011;57276;51.364;12.376;2023-05-07T05:38:48;13.23;;;7.33;;
69953;SDS011;57276;51.364;12.376;2023-05-07T05:44:50;13.88;;;8.00;;
69953;SDS011;57276;51.364;12.376;2023-05-07T05:50:52;12.83;;;7.37;;
69953;SDS011;57276;51.364;12.376;2023-05-07T05:56:54;12.00;;;6.80;;
69953;SDS011;57276;51.364;12.376;2023-05-07T06:02:57;10.75;;;6.65;;
69953;SDS011;57276;51.364;12.376;2023-05-07T06:09:00;12.23;;;6.60;;
69953;SDS011;57276;51.364;12.376;2023-05-07T06:15:11;11.95;;;7.55;;
69953;SDS011;57276;51.364;12.376;2023-05-07T06:21:14;13.33;;;7.40;;
69953;SDS011;57276;51.364;12.376;2023-05-07T06:27:16;12.95;;;7.88;;
69953;SDS011;57276;51.364;12.376;2023-05-07T06:33:19;15.02;;;7.72;;
69953;SDS011;57276;51.364;12.376;2023-05-07T06:39:21;13.07;;;7.60;;
69953;SDS011;57276;51.364;12.376;2023-05-07T06:45:22;15.75;;;8.00;;
69953;SDS011;57276;51.364;12.376;2023-05-07T06:51:26;12.87;;;8.07;;
69953;SDS011;57276;51.364;12.376;2023-05-07T06:57:29;12.95;;;7.93;;
69953;SDS011;57276;51.364;12.376;2023-05-07T07:03:31;12.90;;;7.63;;
69953;SDS011;57276;51.364;12.376;2023-05-07T07:09:33;12.00;;;7.23;;
69953;SDS011;57276;51.364;12.376;2023-05-07T07:15:36;13.77;;;7.50;;
69953;SDS011;57276;51.364;12.376;2023-05-07T07:21:39;12.30;;;7.60;;
69953;SDS011;57276;51.364;12.376;2023-05-07T07:27:41;11.27;;;6.00;;
69953;SDS011;57276;51.364;12.376;2023-05-07T07:33:44;10.27;;;6.43;;
69953;SDS011;57276;51.364;12.376;2023-05-07T07:39:47;10.83;;;6.13;;
69953;SDS011;57276;51.364;12.376;2023-05-07T07:45:50;11.40;;;6.20;;
69953;SDS011;57276;51.364;12.376;2023-05-07T07:51:53;8.53;;;5.60;;
69953;SDS011;57276;51.364;12.376;2023-05-07T07:57:55;8.40;;;5.13;;
69953;SDS011;57276;51.364;12.376;2023-05-07T08:03:58;8.07;;;5.50;;
69953;SDS011;57276;51.364;12.376;2023-05-07T08:10:01;7.23;;;4.80;;
69953;SDS011;57276;51.364;12.376;2023-05-07T08:16:05;9.05;;;5.43;;
69953;SDS011;57276;51.364;12.376;2023-05-07T08:22:09;8.80;;;5.33;;
69953;SDS011;57276;51.364;12.376;2023-05-07T08:28:11;7.65;;;4.85;;
69953;SDS011;57276;51.364;12.376;2023-05-07T08:34:15;7.38;;;4.45;;
69953;SDS011;57276;51.364;12.376;2023-05-07T08:40:20;7.77;;;4.60;;
69953;SDS011;57276;51.364;12.376;2023-05-07T08:46:24;6.35;;;4.35;;
69953;SDS011;57276;51.364;12.376;2023-05-07T08:52:30;7.83;;;4.83;;
69953;SDS011;57276;51.364;12.376;2023-05-07T08:58:31;9.05;;;4.82;;
69953;SDS011;57276;51.364;12.376;2023-05-07T09:04:33;7.40;;;5.10;;
69953;SDS011;57276;51.364;12.376;2023-05-07T09:10:36;9.40;;;5.70;;
69953;SDS011;57276;51.364;12.376;2023-05-07T09:16:39;8.00;;;5.22;;
69953;SDS011;57276;51.364;12.376;2023-05-07T09:22:41;7.90;;;5.27;;
69953;SDS011;57276;51.364;12.376;2023-05-07T09:28:47;7.80;;;5.30;;
69953;SDS011;57276;51.364;12.376;2023-05-07T09:34:50;9.70;;;5.43;;
69953;SDS011;57276;51.364;12.376;2023-05-07T09:41:04;8.07;;;5.00;;
69953;SDS011;57276;51.364;12.376;2023-05-07T09:47:10;7.90;;;5.47;;
69953;SDS011;57276;51.364;12.376;2023-05-07T09:53:19;12.13;;;6.47;;
69953;SDS011;57276;51.364;12.376;2023-05-07T09:59:21;10.25;;;5.53;;
69953;SDS011;57276;51.364;12.376;2023-05-07T10:05:24;7.85;;;5.20;;
69953;SDS011;57276;51.364;12.376;2023-05-07T10:11:32;8.17;;;5.20;;
69953;SDS011;57276;51.364;12.376;2023-05-07T10:17:40;7.63;;;4.95;;
69953;SDS011;57276;51.364;12.376;2023-05-07T10:23:50;7.57;;;4.77;;
69953;SDS011;57276;51.364;12.376;2023-05-07T10:36:14;7.43;;;4.70;;
69953;SDS011;57276;51.364;12.376;2023-05-07T10:42:16;6.73;;;4.13;;
69953;SDS011;57276;51.364;12.376;2023-05-07T10:48:24;6.90;;;4.22;;
69953;SDS011;57276;51.364;12.376;2023-05-07T10:54:35;7.70;;;4.87;;
69953;SDS011;57276;51.364;12.376;2023-05-07T11:00:42;8.07;;;5.68;;
69953;SDS011;57276;51.364;12.376;2023-05-07T11:07:33;10.23;;;6.35;;
69953;SDS011;57276;51.364;12.376;2023-05-07T11:19:50;10.35;;;6.18;;
69953;SDS011;57276;51.364;12.376;2023-05-07T11:32:02;9.02;;;5.03;;
69953;SDS011;57276;51.364;12.376;2023-05-07T11:38:12;7.65;;;4.72;;
69953;SDS011;57276;51.364;12.376;2023-05-07T11:44:15;8.07;;;5.10;;
69953;SDS011;57276;51.364;12.376;2023-05-07T11:50:17;8.98;;;5.65;;
69953;SDS011;57276;51.364;12.376;2023-05-07T11:56:18;7.27;;;4.60;;
69953;SDS011;57276;51.364;12.376;2023-05-07T12:02:20;8.35;;;4.75;;
69953;SDS011;57276;51.364;12.376;2023-05-07T12:08:22;8.43;;;5.10;;
69953;SDS011;57276;51.364;12.376;2023-05-07T12:14:27;8.27;;;5.17;;
69953;SDS011;57276;51.364;12.376;2023-05-07T12:20:28;8.40;;;5.05;;
69953;SDS011;57276;51.364;12.376;2023-05-07T12:26:30;7.80;;;5.13;;
69953;SDS011;57276;51.364;12.376;2023-05-07T12:32:31;7.40;;;4.80;;
69953;SDS011;57276;51.364;12.376;2023-05-07T12:38:38;7.95;;;5.35;;
69953;SDS011;57276;51.364;12.376;2023-05-07T12:44:41;8.30;;;5.30;;
69953;SDS011;57276;51.364;12.376;2023-05-07T12:50:53;7.72;;;4.57;;
69953;SDS011;57276;51.364;12.376;2023-05-07T12:57:03;7.67;;;4.40;;
69953;SDS011;57276;51.364;12.376;2023-05-07T13:03:05;7.28;;;3.70;;
69953;SDS011;57276;51.364;12.376;2023-05-07T13:09:06;6.13;;;3.70;;
69953;SDS011;57276;51.364;12.376;2023-05-07T13:15:10;6.83;;;4.27;;
69953;SDS011;57276;51.364;12.376;2023-05-07T13:21:12;6.95;;;4.32;;
69953;SDS011;57276;51.364;12.376;2023-05-07T13:27:14;7.87;;;4.20;;
69953;SDS011;57276;51.364;12.376;2023-05-07T13:33:16;6.65;;;3.75;;
69953;SDS011;57276;51.364;12.376;2023-05-07T13:39:18;6.28;;;3.67;;
69953;SDS011;57276;51.364;12.376;2023-05-07T13:45:19;5.60;;;3.60;;
69953;SDS011;57276;51.364;12.376;2023-05-07T13:51:21;9.18;;;3.80;;
69953;SDS011;57276;51.364;12.376;2023-05-07T13:57:23;5.60;;;3.30;;
69953;SDS011;57276;51.364;12.376;2023-05-07T14:03:24;6.28;;;3.17;;
69953;SDS011;57276;51.364;12.376;2023-05-07T14:09:26;5.40;;;3.30;;
69953;SDS011;57276;51.364;12.376;2023-05-07T14:15:28;5.40;;;3.27;;
69953;SDS011;57276;51.364;12.376;2023-05-07T14:21:29;4.93;;;3.08;;
69953;SDS011;57276;51.364;12.376;2023-05-07T14:27:32;6.70;;;3.20;;
69953;SDS011;57276;51.364;12.376;2023-05-07T14:33:33;5.05;;;2.90;;
69953;SDS011;57276;51.364;12.376;2023-05-07T14:39:35;6.65;;;2.60;;
69953;SDS011;57276;51.364;12.376;2023-05-07T14:45:37;5.20;;;2.80;;
69953;SDS011;57276;51.364;12.376;2023-05-07T14:51:38;6.45;;;3.00;;
69953;SDS011;57276;51.364;12.376;2023-05-07T14:57:40;5.77;;;3.00;;
69953;SDS011;57276;51.364;12.376;2023-05-07T15:03:43;5.95;;;2.70;;
69953;SDS011;57276;51.364;12.376;2023-05-07T15:09:44;6.97;;;2.80;;
69953;SDS011;57276;51.364;12.376;2023-05-07T15:15:46;5.83;;;2.63;;
69953;SDS011;57276;51.364;12.376;2023-05-07T15:21:48;6.32;;;2.92;;
69953;SDS011;57276;51.364;12.376;2023-05-07T15:27:49;4.97;;;2.97;;
69953;SDS011;57276;51.364;12.376;2023-05-07T15:33:53;5.40;;;3.30;;
69953;SDS011;57276;51.364;12.376;2023-05-07T15:39:55;6.63;;;3.40;;
69953;SDS011;57276;51.364;12.376;2023-05-07T15:45:57;5.00;;;3.00;;
69953;SDS011;57276;51.364;12.376;2023-05-07T15:52:00;6.75;;;3.90;;
69953;SDS011;57276;51.364;12.376;2023-05-07T15:58:02;5.73;;;3.70;;
69953;SDS011;57276;51.364;12.376;2023-05-07T16:04:07;5.35;;;3.40;;
69953;SDS011;57276;51.364;12.376;2023-05-07T16:10:09;6.15;;;3.88;;
69953;SDS011;57276;51.364;12.376;2023-05-07T16:16:11;9.00;;;4.43;;
69953;SDS011;57276;51.364;12.376;2023-05-07T16:22:15;6.65;;;4.18;;
69953;SDS011;57276;51.364;12.376;2023-05-07T16:28:17;6.10;;;3.90;;
69953;SDS011;57276;51.364;12.376;2023-05-07T16:34:19;8.80;;;3.83;;
69953;SDS011;57276;51.364;12.376;2023-05-07T16:40:22;7.35;;;4.10;;
69953;SDS011;57276;51.364;12.376;2023-05-07T16:46:24;6.40;;;3.90;;
69953;SDS011;57276;51.364;12.376;2023-05-07T16:52:28;7.20;;;4.40;;
69953;SDS011;57276;51.364;12.376;2023-05-07T16:58:30;6.87;;;4.40;;
69953;SDS011;57276;51.364;12.376;2023-05-07T17:04:33;7.18;;;4.10;;
69953;SDS011;57276;51.364;12.376;2023-05-07T17:10:35;7.82;;;4.22;;
69953;SDS011;57276;51.364;12.376;2023-05-07T17:16:37;6.27;;;4.13;;
69953;SDS011;57276;51.364;12.376;2023-05-07T17:22:39;6.28;;;4.20;;
69953;SDS011;57276;51.364;12.376;2023-05-07T17:28:43;10.73;;;5.37;;
69953;SDS011;57276;51.364;12.376;2023-05-07T17:34:45;8.52;;;4.93;;
69953;SDS011;57276;51.364;12.376;2023-05-07T17:40:47;10.02;;;5.90;;
69953;SDS011;57276;51.364;12.376;2023-05-07T17:46:49;7.40;;;4.93;;
69953;SDS011;57276;51.364;12.376;2023-05-07T17:52:51;9.63;;;5.63;;
69953;SDS011;57276;51.364;12.376;2023-05-07T17:58:57;10.17;;;6.40;;
69953;SDS011;57276;51.364;12.376;2023-05-07T18:05:00;11.25;;;6.35;;
69953;SDS011;57276;51.364;12.376;2023-05-07T18:11:02;13.57;;;7.57;;
69953;SDS011;57276;51.364;12.376;2023-05-07T18:17:06;21.03;;;8.83;;
69953;SDS011;57276;51.364;12.376;2023-05-07T18:23:08;15.48;;;7.80;;
69953;SDS011;57276;51.364;12.376;2023-05-07T18:29:10;11.53;;;6.73;;
69953;SDS011;57276;51.364;12.376;2023-05-07T18:35:12;10.77;;;6.20;;
69953;SDS011;57276;51.364;12.376;2023-05-07T18:41:16;6.97;;;4.60;;
69953;SDS011;57276;51.364;12.376;2023-05-07T18:47:18;7.90;;;5.20;;
69953;SDS011;57276;51.364;12.376;2023-05-07T18:53:20;9.10;;;4.97;;
69953;SDS011;57276;51.364;12.376;2023-05-07T18:59:22;7.63;;;4.90;;
69953;SDS011;57276;51.364;12.376;2023-05-07T19:05:27;8.80;;;5.00;;
69953;SDS011;57276;51.364;12.376;2023-05-07T19:11:29;7.00;;;4.57;;
69953;SDS011;57276;51.364;12.376;2023-05-07T19:17:32;7.03;;;4.70;;
69953;SDS011;57276;51.364;12.376;2023-05-07T19:23:36;7.32;;;4.97;;
69953;SDS011;57276;51.364;12.376;2023-05-07T19:29:42;8.10;;;5.20;;
69953;SDS011;57276;51.364;12.376;2023-05-07T19:35:46;7.63;;;4.80;;
69953;SDS011;57276;51.364;12.376;2023-05-07T19:41:48;8.90;;;4.80;;
69953;SDS011;57276;51.364;12.376;2023-05-07T19:47:50;7.30;;;4.43;;
69953;SDS011;57276;51.364;12.376;2023-05-07T19:53:52;7.63;;;5.10;;
69953;SDS011;57276;51.364;12.376;2023-05-07T19:59:54;7.53;;;4.43;;
69953;SDS011;57276;51.364;12.376;2023-05-07T20:05:56;8.10;;;4.90;;
69953;SDS011;57276;51.364;12.376;2023-05-07T20:11:58;9.07;;;4.32;;
69953;SDS011;57276;51.364;12.376;2023-05-07T20:18:00;8.10;;;4.50;;
69953;SDS011;57276;51.364;12.376;2023-05-07T20:24:01;7.25;;;4.50;;
69953;SDS011;57276;51.364;12.376;2023-05-07T20:30:04;9.13;;;4.53;;
69953;SDS011;57276;51.364;12.376;2023-05-07T20:36:06;8.07;;;4.47;;
69953;SDS011;57276;51.364;12.376;2023-05-07T20:42:10;7.30;;;4.40;;
69953;SDS011;57276;51.364;12.376;2023-05-07T20:48:12;8.37;;;5.13;;
69953;SDS011;57276;51.364;12.376;2023-05-07T20:54:15;9.32;;;4.65;;
69953;SDS011;57276;51.364;12.376;2023-05-07T21:00:16;8.17;;;4.50;;
69953;SDS011;57276;51.364;12.376;2023-05-07T21:06:19;8.85;;;4.95;;
69953;SDS011;57276;51.364;12.376;2023-05-07T21:12:22;7.75;;;4.78;;
69953;SDS011;57276;51.364;12.376;2023-05-07T21:18:24;8.60;;;4.73;;
69953;SDS011;57276;51.364;12.376;2023-05-07T21:24:27;9.32;;;5.15;;
69953;SDS011;57276;51.364;12.376;2023-05-07T21:30:28;8.87;;;4.87;;
69953;SDS011;57276;51.364;12.376;2023-05-07T21:36:30;8.48;;;4.97;;
69953;SDS011;57276;51.364;12.376;2023-05-07T21:42:31;11.13;;;5.40;;
69953;SDS011;57276;51.364;12.376;2023-05-07T21:48:34;8.90;;;5.23;;
69953;SDS011;57276;51.364;12.376;2023-05-07T21:54:35;9.80;;;5.38;;
69953;SDS011;57276;51.364;12.376;2023-05-07T22:00:37;10.17;;;5.73;;
69953;SDS011;57276;51.364;12.376;2023-05-07T22:06:39;9.23;;;5.28;;
69953;SDS011;57276;51.364;12.376;2023-05-07T22:12:41;9.77;;;5.80;;
69953;SDS011;57276;51.364;12.376;2023-05-07T22:18:42;10.07;;;5.20;;
69953;SDS011;57276;51.364;12.376;2023-05-07T22:24:44;8.80;;;5.40;;
69953;SDS011;57276;51.364;12.376;2023-05-07T22:30:46;9.97;;;5.63;;
69953;SDS011;57276;51.364;12.376;2023-05-07T22:36:47;9.30;;;5.30;;
69953;SDS011;57276;51.364;12.376;2023-05-07T22:42:49;9.07;;;5.40;;
69953;SDS011;57276;51.364;12.376;2023-05-07T22:48:52;9.03;;;5.37;;
69953;SDS011;57276;51.364;12.376;2023-05-07T22:54:53;9.02;;;5.57;;
69953;SDS011;57276;51.364;12.376;2023-05-07T23:00:54;9.40;;;5.03;;
69953;SDS011;57276;51.364;12.376;2023-05-07T23:06:57;8.38;;;5.18;;
69953;SDS011;57276;51.364;12.376;2023-05-07T23:13:00;7.82;;;4.88;;
69953;SDS011;57276;51.364;12.376;2023-05-07T23:19:01;9.57;;;5.10;;
69953;SDS011;57276;51.364;12.376;2023-05-07T23:25:03;9.73;;;5.20;;
69953;SDS011;57276;51.364;12.376;2023-05-07T23:31:05;9.53;;;4.93;;
69953;SDS011;57276;51.364;12.376;2023-05-07T23:37:07;7.68;;;4.50;;
69953;SDS011;57276;51.364;12.376;2023-05-07T23:43:09;11.57;;;4.70;;
69953;SDS011;57276;51.364;12.376;2023-05-07T23:49:11;9.43;;;4.73;;
69953;SDS011;57276;51.364;12.376;2023-05-07T23:55:12;7.65;;;4.97;;
